Time;durP1;ratioP1;P1;durP2;ratioP2;P2;SDS_P1;SDS_P2;PMS_P1;PMS_P2;Temp;Humidity;BMP_temperature;BMP_pressure;BME280_temperature;BME280_humidity;BME280_pressure;Samples;Min_cycle;Max_cycle;Signal;HPM_P1;HPM_P2
2023/06/30 00:01:48;;;;;;;4.50;2.62;;;;;;;17.20;92.50;98541.88;4485929;31;20470;-65
2023/06/30 00:04:22;;;;;;;6.97;2.50;;;;;;;17.15;93.26;98540.78;4486288;31;20425;-65
2023/06/30 00:06:50;;;;;;;6.10;2.43;;;;;;;17.24;92.97;98538.84;4486029;32;20127;-65
2023/06/30 00:09:19;;;;;;;4.25;2.40;;;;;;;17.25;92.96;98536.00;4486041;31;20139;-65
2023/06/30 00:11:52;;;;;;;4.37;2.42;;;;;;;17.22;93.35;98532.94;4486031;31;20104;-65
2023/06/30 00:14:21;;;;;;;6.28;2.67;;;;;;;17.24;92.77;98534.34;4485882;31;20142;-65
2023/06/30 00:16:49;;;;;;;6.00;2.55;;;;;;;17.25;92.90;98527.25;4485825;31;20545;-65
2023/06/30 00:19:17;;;;;;;3.17;2.42;;;;;;;17.26;92.30;98529.72;4485712;31;20532;-65
2023/06/30 00:21:45;;;;;;;3.67;2.50;;;;;;;17.23;92.40;98529.25;4486126;31;20486;-65
2023/06/30 00:24:13;;;;;;;3.83;2.30;;;;;;;17.24;92.43;98528.25;4485895;32;20123;-65
2023/06/30 00:26:41;;;;;;;3.78;2.30;;;;;;;17.26;91.39;98526.22;4485823;31;20157;-65
2023/06/30 00:29:09;;;;;;;7.70;2.17;;;;;;;17.22;91.41;98528.44;4485875;32;20599;-65
2023/06/30 00:31:37;;;;;;;3.00;1.95;;;;;;;17.17;91.62;98522.91;4485772;31;20133;-65
2023/06/30 00:34:05;;;;;;;4.95;2.22;;;;;;;17.11;92.41;98524.44;4485983;32;20164;-65
2023/06/30 00:36:33;;;;;;;4.75;2.58;;;;;;;17.23;91.63;98527.44;4485765;32;20153;-65
2023/06/30 00:39:01;;;;;;;2.83;2.40;;;;;;;17.25;90.91;98524.63;4485778;31;20160;-65
2023/06/30 00:41:28;;;;;;;4.30;2.30;;;;;;;17.23;91.13;98521.31;4485658;31;20122;-65
2023/06/30 00:43:58;;;;;;;4.28;2.35;;;;;;;17.28;90.28;98522.41;4485737;31;20089;-65
2023/06/30 00:46:25;;;;;;;10.85;2.45;;;;;;;17.35;89.80;98515.34;4485827;31;20134;-65
2023/06/30 00:48:54;;;;;;;3.97;2.25;;;;;;;17.38;89.54;98517.63;4486001;31;20092;-65
2023/06/30 00:51:21;;;;;;;2.40;1.95;;;;;;;17.40;88.89;98522.75;4485472;31;20100;-65
2023/06/30 00:53:49;;;;;;;3.55;2.40;;;;;;;17.41;88.79;98510.31;4485767;31;20088;-65
2023/06/30 00:56:16;;;;;;;4.70;2.10;;;;;;;17.40;88.62;98509.50;4483751;32;20148;-65
2023/06/30 00:58:44;;;;;;;3.70;2.17;;;;;;;17.42;88.38;98504.81;4486039;31;20092;-65
2023/06/30 01:01:38;;;;;;;2.62;1.90;;;;;;;17.31;89.22;98503.50;4485509;32;20096;-65
2023/06/30 01:04:18;;;;;;;5.35;1.90;;;;;;;17.28;89.54;98511.00;4484471;32;20097;-65
2023/06/30 01:07:00;;;;;;;5.05;2.00;;;;;;;17.17;90.79;98504.38;4484346;32;20104;-65
2023/06/30 01:09:36;;;;;;;5.50;2.20;;;;;;;17.08;91.01;98506.28;4485745;32;20184;-65
2023/06/30 01:12:03;;;;;;;4.65;2.30;;;;;;;17.01;91.58;98506.19;4485469;31;20081;-65
2023/06/30 01:14:31;;;;;;;4.70;2.05;;;;;;;16.95;92.12;98495.53;4484293;32;20135;-65
2023/06/30 01:17:00;;;;;;;2.50;2.22;;;;;;;16.92;92.23;98498.56;4485358;31;20638;-65
2023/06/30 01:19:33;;;;;;;3.60;2.12;;;;;;;16.89;92.45;98501.56;4485817;31;20787;-65
2023/06/30 01:22:13;;;;;;;2.47;2.03;;;;;;;16.82;92.92;98499.63;4484206;32;20564;-65
2023/06/30 01:24:41;;;;;;;4.95;2.22;;;;;;;16.78;93.79;98501.00;4485568;31;20101;-65
2023/06/30 01:27:08;;;;;;;3.37;2.15;;;;;;;16.72;94.15;98504.38;4485655;32;20127;-65
2023/06/30 01:29:42;;;;;;;3.92;2.12;;;;;;;16.61;95.26;98502.22;4485646;31;20748;-65
2023/06/30 01:32:09;;;;;;;4.62;1.92;;;;;;;16.57;95.56;98498.28;4485410;32;20102;-65
2023/06/30 01:34:37;;;;;;;3.65;2.17;;;;;;;16.50;95.75;98499.00;4485398;32;20451;-65
2023/06/30 01:37:04;;;;;;;3.50;2.00;;;;;;;16.45;96.33;98495.25;4485266;31;20134;-65
2023/06/30 01:39:31;;;;;;;3.72;1.87;;;;;;;16.39;97.19;98486.22;4485357;32;20148;-65
2023/06/30 01:41:59;;;;;;;2.83;2.22;;;;;;;16.38;97.34;98495.19;4485247;31;20088;-65
2023/06/30 01:44:27;;;;;;;3.78;2.50;;;;;;;16.31;97.53;98487.13;4484517;32;20172;-65
2023/06/30 01:46:54;;;;;;;3.05;2.00;;;;;;;16.26;97.61;98488.66;4483918;32;20191;-65
2023/06/30 01:49:25;;;;;;;4.20;1.90;;;;;;;16.18;97.82;98486.94;4485365;31;20449;-65
2023/06/30 01:52:01;;;;;;;2.65;2.10;;;;;;;16.13;98.08;98489.31;4484065;32;20099;-65
2023/06/30 01:54:28;;;;;;;3.45;2.08;;;;;;;16.10;98.47;98490.47;4485293;31;20134;-65
2023/06/30 01:56:55;;;;;;;3.30;1.60;;;;;;;16.09;98.74;98490.66;4483915;32;20092;-65
2023/06/30 01:59:22;;;;;;;3.65;2.15;;;;;;;16.06;98.95;98483.91;4485557;32;20096;-65
2023/06/30 02:01:50;;;;;;;3.25;2.00;;;;;;;16.05;99.19;98486.72;4485095;32;20126;-65
2023/06/30 02:04:18;;;;;;;3.30;1.92;;;;;;;15.98;99.69;98481.34;4483992;32;20122;-65
2023/06/30 02:06:46;;;;;;;3.15;2.00;;;;;;;15.93;100.00;98481.06;4484182;31;20096;-65
2023/06/30 02:09:17;;;;;;;2.55;2.15;;;;;;;15.88;100.00;98480.75;4485099;31;20089;-65
2023/06/30 02:11:47;;;;;;;2.65;2.00;;;;;;;15.87;100.00;98479.94;4485119;32;20123;-65
2023/06/30 02:14:16;;;;;;;4.05;1.95;;;;;;;15.86;100.00;98477.50;4485162;31;20104;-65
2023/06/30 02:16:43;;;;;;;2.30;2.10;;;;;;;15.85;100.00;98476.69;4485012;31;20077;-65
2023/06/30 02:19:10;;;;;;;2.97;2.10;;;;;;;15.86;100.00;98474.84;4485159;32;20091;-65
2023/06/30 02:21:38;;;;;;;4.20;2.15;;;;;;;15.81;100.00;98474.56;4485097;31;20135;-65
2023/06/30 02:24:05;;;;;;;1.92;1.60;;;;;;;15.79;100.00;98478.19;4484990;31;20108;-65
2023/06/30 02:26:33;;;;;;;3.45;2.17;;;;;;;15.79;100.00;98472.91;4485355;31;20157;-65
2023/06/30 02:29:00;;;;;;;2.53;2.00;;;;;;;15.79;100.00;98478.19;4484917;32;20156;-65
2023/06/30 02:31:28;;;;;;;3.97;1.92;;;;;;;15.77;100.00;98474.91;4485185;31;20109;-65
2023/06/30 02:33:56;;;;;;;2.83;2.20;;;;;;;15.71;100.00;98467.66;4484896;32;20092;-65
2023/06/30 02:36:25;;;;;;;2.53;1.77;;;;;;;15.72;100.00;98466.66;4485137;31;20119;-65
2023/06/30 02:38:54;;;;;;;3.40;1.80;;;;;;;15.73;100.00;98464.84;4484901;32;20484;-65
2023/06/30 02:41:22;;;;;;;2.55;2.00;;;;;;;15.67;100.00;98468.19;4485096;31;20227;-65
2023/06/30 02:43:50;;;;;;;2.53;1.80;;;;;;;15.66;100.00;98462.09;4485124;32;20184;-65
2023/06/30 02:46:18;;;;;;;3.47;2.30;;;;;;;15.66;100.00;98456.81;4485257;31;20463;-65
2023/06/30 02:48:46;;;;;;;3.67;1.87;;;;;;;15.61;100.00;98464.47;4484920;31;20113;-65
2023/06/30 02:51:13;;;;;;;2.40;1.98;;;;;;;15.63;100.00;98456.34;4484832;31;20122;-65
2023/06/30 02:53:41;;;;;;;5.53;2.15;;;;;;;15.62;100.00;98466.09;4485026;32;20092;-65
2023/06/30 02:56:09;;;;;;;2.55;1.95;;;;;;;15.61;100.00;98465.28;4485148;31;20104;-65
2023/06/30 02:58:39;;;;;;;2.80;1.80;;;;;;;15.64;100.00;98477.31;4484942;31;20083;-65
2023/06/30 03:01:07;;;;;;;2.97;2.25;;;;;;;15.55;100.00;98470.44;4485040;31;20190;-65
2023/06/30 03:03:35;;;;;;;6.35;1.90;;;;;;;15.54;100.00;98474.06;4484865;32;20128;-65
2023/06/30 03:06:04;;;;;;;5.75;2.60;;;;;;;15.52;100.00;98470.78;4484946;31;20104;-65
2023/06/30 03:08:33;;;;;;;4.10;2.35;;;;;;;15.54;100.00;98474.06;4484812;31;20092;-65
2023/06/30 03:11:01;;;;;;;6.30;1.90;;;;;;;15.54;100.00;98474.06;4484767;32;20146;-65
2023/06/30 03:13:29;;;;;;;4.35;2.25;;;;;;;15.58;100.00;98476.19;4484637;32;20119;-65
2023/06/30 03:15:57;;;;;;;2.40;1.98;;;;;;;15.61;100.00;98467.91;4484887;32;20168;-65
2023/06/30 03:18:25;;;;;;;3.75;2.20;;;;;;;15.63;100.00;98472.19;4485058;31;20516;-65
2023/06/30 03:20:53;;;;;;;3.12;2.03;;;;;;;15.59;100.00;98472.56;4486691;31;20092;-65
2023/06/30 03:23:21;;;;;;;4.28;2.12;;;;;;;15.76;100.00;98473.25;4486297;31;20097;-65
2023/06/30 03:25:48;;;;;;;2.10;1.83;;;;;;;16.10;100.00;98471.97;4486694;31;20148;-65
2023/06/30 03:28:16;;;;;;;5.75;2.10;;;;;;;16.38;100.00;98471.38;4486672;31;20539;-65
2023/06/30 03:30:43;;;;;;;3.80;2.03;;;;;;;16.53;98.40;98476.66;4486304;31;20144;-65
2023/06/30 03:33:11;;;;;;;3.60;2.25;;;;;;;16.64;99.00;98476.19;4486217;32;20474;-65
2023/06/30 03:35:39;;;;;;;4.35;2.05;;;;;;;16.65;97.79;98480.50;4486336;32;20145;-65
2023/06/30 03:38:07;;;;;;;2.65;2.33;;;;;;;16.80;97.33;98485.75;4486025;31;20099;-65
2023/06/30 03:40:35;;;;;;;2.53;2.22;;;;;;;16.98;97.26;98481.94;4486329;32;20389;-65
2023/06/30 03:43:03;;;;;;;4.32;2.70;;;;;;;17.15;95.72;98475.44;4485876;32;20092;-65
2023/06/30 03:45:31;;;;;;;3.78;2.22;;;;;;;17.29;94.89;98475.56;4486525;31;20622;-65
2023/06/30 03:48:00;;;;;;;2.65;1.90;;;;;;;17.44;95.74;98471.06;4485969;31;20108;-65
2023/06/30 03:50:29;;;;;;;5.53;2.47;;;;;;;17.56;95.60;98476.63;4486526;31;20140;-65
2023/06/30 03:52:57;;;;;;;2.95;2.10;;;;;;;17.62;95.38;98465.28;4486082;32;20128;-65
2023/06/30 03:55:25;;;;;;;2.67;1.87;;;;;;;17.76;94.95;98468.91;4486144;31;20104;-65
2023/06/30 03:57:53;;;;;;;2.83;2.25;;;;;;;17.79;94.63;98473.81;4486215;31;20452;-65
2023/06/30 04:00:21;;;;;;;4.57;2.10;;;;;;;17.90;94.78;98469.84;4486285;31;20160;-65
2023/06/30 04:02:48;;;;;;;2.60;1.98;;;;;;;18.00;93.49;98470.34;4485825;32;20154;-65
2023/06/30 04:05:18;;;;;;;2.70;1.92;;;;;;;18.11;93.75;98474.28;4486222;32;20119;-65
2023/06/30 04:07:45;;;;;;;5.50;2.22;;;;;;;18.21;93.68;98466.81;4486041;31;20179;-65
2023/06/30 04:10:13;;;;;;;3.83;2.28;;;;;;;18.31;94.58;98470.97;4485965;31;20104;-65
2023/06/30 04:12:44;;;;;;;3.22;2.30;;;;;;;18.44;95.06;98471.03;4487916;31;20092;-64
2023/06/30 04:15:12;;;;;;;3.45;2.12;;;;;;;18.52;93.02;98470.88;4478769;31;20523;-65
2023/06/30 04:17:39;;;;;;;6.62;2.40;;;;;;;18.65;93.09;98464.00;4478517;31;20151;-65
2023/06/30 04:20:09;;;;;;;5.03;2.37;;;;;;;18.78;91.82;98466.72;4473931;31;20096;-65
2023/06/30 04:22:37;;;;;;;6.35;2.50;;;;;;;18.95;91.61;98464.56;4487648;31;20159;-65
2023/06/30 04:25:06;;;;;;;6.12;2.87;;;;;;;19.08;89.36;98467.28;4484949;31;20088;-65
2023/06/30 04:27:34;;;;;;;6.43;2.62;;;;;;;19.22;88.80;98469.97;4476873;31;20100;-65
2023/06/30 04:30:03;;;;;;;8.05;3.65;;;;;;;19.36;90.61;98473.47;4471751;32;20121;-65
2023/06/30 04:32:32;;;;;;;6.80;2.55;;;;;;;19.61;89.80;98466.56;4477630;31;20750;-65
2023/06/30 04:35:04;;;;;;;5.12;2.40;;;;;;;19.84;88.47;98466.19;4482585;31;20084;-65
2023/06/30 04:37:32;;;;;;;5.22;3.37;;;;;;;20.08;86.98;98469.25;4481781;31;20514;-65
2023/06/30 04:39:59;;;;;;;5.78;2.53;;;;;;;20.29;85.66;98468.22;4482686;31;20111;-65
2023/06/30 04:42:28;;;;;;;9.93;2.70;;;;;;;20.46;83.58;98457.12;4486008;31;20158;-65
2023/06/30 04:44:55;;;;;;;5.03;2.62;;;;;;;20.61;81.88;98459.53;4485573;31;20135;-65
2023/06/30 04:47:22;;;;;;;6.97;3.10;;;;;;;20.77;82.71;98458.28;4486252;31;20122;-65
2023/06/30 04:49:50;;;;;;;3.92;2.17;;;;;;;20.91;80.39;98458.00;4486042;31;20144;-65
2023/06/30 04:52:18;;;;;;;2.85;2.50;;;;;;;21.03;78.87;98462.66;4485641;31;20436;-65
2023/06/30 04:54:45;;;;;;;7.32;2.42;;;;;;;21.16;77.91;98456.47;4486774;31;20506;-65
2023/06/30 04:57:15;;;;;;;2.90;2.30;;;;;;;21.33;76.46;98460.25;4485625;31;20104;-65
2023/06/30 04:59:43;;;;;;;4.62;2.22;;;;;;;21.58;76.91;98455.00;4485475;31;20123;-65
2023/06/30 05:02:10;;;;;;;6.28;2.50;;;;;;;21.77;75.65;98453.22;4484886;31;20124;-65
2023/06/30 05:04:37;;;;;;;5.32;2.15;;;;;;;21.87;74.58;98455.38;4485646;31;20108;-65
2023/06/30 05:07:05;;;;;;;5.82;2.70;;;;;;;22.03;73.93;98451.34;4485637;32;20565;-65
2023/06/30 05:09:33;;;;;;;5.90;2.75;;;;;;;22.21;74.89;98453.25;4479128;32;20520;-65
2023/06/30 05:12:01;;;;;;;4.50;2.40;;;;;;;22.30;73.76;98448.41;4485421;31;20172;-65
2023/06/30 05:14:28;;;;;;;10.13;3.30;;;;;;;22.45;75.15;98459.59;4486158;31;20139;-65
2023/06/30 05:16:56;;;;;;;5.55;3.17;;;;;;;22.53;72.45;98450.47;4485016;31;20840;-65
2023/06/30 05:19:24;;;;;;;6.47;2.92;;;;;;;22.53;75.51;98460.31;4485891;31;20359;-65
2023/06/30 05:21:52;;;;;;;6.12;2.92;;;;;;;22.41;nan;98458.41;4485036;31;20108;-65
2023/06/30 05:24:20;;;;;;;7.15;2.92;;;;;;;22.57;74.06;98456.19;4486001;31;20096;-65
2023/06/30 05:26:48;;;;;;;4.00;2.90;;;;;;;22.71;73.48;98451.50;4483798;31;20473;-65
2023/06/30 05:29:15;;;;;;;8.43;3.17;;;;;;;22.60;71.62;98453.87;4483779;31;20125;-65
2023/06/30 05:31:43;;;;;;;4.45;3.28;;;;;;;22.86;74.31;98455.44;4482253;32;20176;-65
2023/06/30 05:34:15;;;;;;;4.57;2.80;;;;;;;22.87;72.40;98459.72;4484939;31;20084;-65
2023/06/30 05:36:44;;;;;;;6.05;3.00;;;;;;;22.93;70.86;98462.53;4477623;31;20162;-66
2023/06/30 05:39:16;;;;;;;5.35;2.60;;;;;;;23.06;71.21;98459.69;4482705;31;20092;-66
2023/06/30 05:41:44;;;;;;;11.25;2.97;;;;;;;23.23;71.79;98461.78;4483259;31;20154;-65
2023/06/30 05:44:11;;;;;;;5.30;3.08;;;;;;;23.35;69.21;98465.31;4482548;31;20494;-65
2023/06/30 05:46:40;;;;;;;8.25;2.67;;;;;;;23.43;69.32;98466.84;4480443;31;20143;-65
2023/06/30 05:49:08;;;;;;;12.98;2.83;;;;;;;23.50;67.56;98467.56;4480292;31;20553;-65
2023/06/30 05:51:38;;;;;;;22.60;3.42;;;;;;;23.62;66.70;98464.88;4483192;31;20134;-65
2023/06/30 05:54:06;;;;;;;4.70;2.50;;;;;;;23.74;67.56;98465.75;4476956;31;20127;-65
2023/06/30 05:56:34;;;;;;;4.18;2.72;;;;;;;23.78;66.54;98463.41;4483967;31;20159;-66
2023/06/30 05:59:01;;;;;;;7.72;2.03;;;;;;;23.89;66.75;98466.12;4471431;31;20119;-65
2023/06/30 06:01:32;;;;;;;9.27;2.50;;;;;;;24.05;63.20;98467.28;4478079;31;20095;-65
2023/06/30 06:03:59;;;;;;;5.85;2.47;;;;;;;24.05;65.73;98466.50;4478888;31;20104;-66
2023/06/30 06:06:27;;;;;;;5.68;2.22;;;;;;;23.96;66.00;98465.22;4479915;31;20140;-66
2023/06/30 06:08:55;;;;;;;9.60;2.20;;;;;;;24.12;65.76;98469.87;4481072;31;20076;-66
2023/06/30 06:11:22;;;;;;;5.95;3.08;;;;;;;24.30;61.29;98468.09;4481632;31;20127;-66
2023/06/30 06:13:50;;;;;;;9.50;2.80;;;;;;;24.24;62.46;98462.66;4481746;32;20164;-66
2023/06/30 06:16:17;;;;;;;9.48;2.80;;;;;;;24.36;63.39;98464.50;4481718;31;20104;-66
2023/06/30 06:18:45;;;;;;;10.75;2.58;;;;;;;24.50;63.61;98473.91;4475349;31;20115;-66
2023/06/30 06:21:18;;;;;;;10.07;2.22;;;;;;;24.59;62.69;98471.72;4480248;31;20133;-66
2023/06/30 06:23:46;;;;;;;4.90;2.40;;;;;;;24.79;60.27;98465.97;4480704;31;20096;-66
2023/06/30 06:26:14;;;;;;;8.80;2.80;;;;;;;24.87;61.09;98470.16;4481633;31;20096;-66
2023/06/30 06:28:43;;;;;;;13.35;2.47;;;;;;;24.85;61.00;98462.34;4482017;31;20148;-66
2023/06/30 06:31:11;;;;;;;24.40;3.30;;;;;;;24.90;60.99;98462.44;4481757;31;20096;-66
2023/06/30 06:33:38;;;;;;;6.07;2.92;;;;;;;24.97;62.30;98468.47;4482009;32;20123;-66
2023/06/30 06:36:11;;;;;;;7.28;2.37;;;;;;;25.02;62.00;98464.28;4481331;31;20123;-66
2023/06/30 06:38:39;;;;;;;9.27;3.08;;;;;;;25.26;62.01;98465.78;4477630;31;20469;-66
2023/06/30 06:41:06;;;;;;;3.03;2.20;;;;;;;25.20;59.02;98464.06;4478535;31;20212;-66
2023/06/30 06:43:34;;;;;;;6.05;2.35;;;;;;;25.03;59.09;98463.22;4480876;31;20487;-66
2023/06/30 06:46:02;;;;;;;5.53;2.62;;;;;;;24.81;61.77;98458.50;4480903;31;20470;-66
2023/06/30 06:48:32;;;;;;;3.35;2.10;;;;;;;25.10;62.71;98463.88;4480947;31;20092;-66
2023/06/30 06:51:02;;;;;;;7.07;2.65;;;;;;;25.32;56.96;98467.53;4476286;32;20522;-66
2023/06/30 06:53:33;;;;;;;7.10;2.62;;;;;;;25.33;58.01;98465.69;4480886;31;20160;-66
2023/06/30 06:56:02;;;;;;;6.65;2.78;;;;;;;25.50;60.10;98466.53;4481847;31;20096;-66
2023/06/30 06:58:32;;;;;;;8.93;2.62;;;;;;;25.53;59.76;98467.91;4479790;31;20445;-66
2023/06/30 07:01:02;;;;;;;5.62;2.50;;;;;;;25.54;61.04;98461.47;4481160;31;21078;-66
2023/06/30 07:03:30;;;;;;;3.67;2.47;;;;;;;25.81;58.46;98469.69;4480897;31;20104;-66
2023/06/30 07:05:58;;;;;;;5.10;2.78;;;;;;;25.85;55.63;98456.63;4480451;31;20570;-66
2023/06/30 07:08:26;;;;;;;2.85;2.10;;;;;;;25.90;56.03;98464.75;4476886;31;20138;-66
2023/06/30 07:10:56;;;;;;;6.50;2.53;;;;;;;25.92;52.54;98467.19;4480309;31;20104;-66
2023/06/30 07:13:23;;;;;;;5.47;2.45;;;;;;;25.84;55.21;98465.72;4481163;31;20104;-66
2023/06/30 07:15:51;;;;;;;6.72;2.72;;;;;;;25.77;54.64;98465.91;4478870;31;20101;-66
2023/06/30 07:18:20;;;;;;;3.78;2.37;;;;;;;25.79;54.48;98465.66;4481568;31;20108;-66
2023/06/30 07:20:49;;;;;;;5.28;2.97;;;;;;;25.79;55.57;98457.59;4480674;31;20112;-66
2023/06/30 07:23:17;;;;;;;4.57;2.70;;;;;;;25.97;58.14;98459.22;4481202;31;20158;-66
2023/06/30 07:25:46;;;;;;;17.40;3.50;;;;;;;26.15;56.01;98455.50;4480148;31;20128;-66
2023/06/30 07:28:14;;;;;;;9.45;3.30;;;;;;;26.21;56.72;98449.16;4480207;31;20093;-66
2023/06/30 07:30:42;;;;;;;4.90;3.20;;;;;;;26.32;55.51;98452.78;4480649;31;20152;-66
2023/06/30 07:33:10;;;;;;;5.28;3.20;;;;;;;26.17;55.49;98458.75;4481375;32;20097;-66
2023/06/30 07:35:38;;;;;;;6.95;3.00;;;;;;;26.06;56.06;98456.94;4480577;31;20096;-66
2023/06/30 07:38:06;;;;;;;5.82;3.20;;;;;;;26.18;57.90;98457.69;4480057;32;20096;-66
2023/06/30 07:40:33;;;;;;;7.22;3.33;;;;;;;26.25;57.08;98457.50;4480303;32;20146;-66
2023/06/30 07:43:20;;;;;;;6.82;3.70;;;;;;;26.35;56.93;98455.78;4480520;31;20118;-66
2023/06/30 07:45:48;;;;;;;8.63;4.15;;;;;;;26.43;55.59;98461.78;4479425;31;21717;-66
2023/06/30 07:48:16;;;;;;;4.22;3.53;;;;;;;26.15;58.57;98456.31;4479701;31;20113;-66
2023/06/30 07:50:47;;;;;;;4.15;2.47;;;;;;;26.37;60.71;98450.97;4479669;31;20149;-66
2023/06/30 07:53:34;;;;;;;8.70;2.67;;;;;;;26.45;52.56;98448.91;4479922;31;20119;-66
2023/06/30 07:56:02;;;;;;;5.25;2.00;;;;;;;26.58;54.94;98453.13;4481095;31;20578;-66
2023/06/30 07:58:29;;;;;;;4.20;2.50;;;;;;;26.50;53.11;98447.09;4478584;31;20108;-67
2023/06/30 08:00:57;;;;;;;3.90;2.72;;;;;;;26.11;50.89;98443.63;4477819;31;20104;-66
2023/06/30 08:03:25;;;;;;;6.65;2.53;;;;;;;26.30;51.52;98444.13;4480366;31;20622;-66
2023/06/30 08:05:55;;;;;;;3.35;2.20;;;;;;;26.42;53.13;98441.34;4481693;31;20128;-66
2023/06/30 08:08:23;;;;;;;8.98;2.12;;;;;;;26.50;53.03;98446.31;4483253;31;20104;-66
2023/06/30 08:10:50;;;;;;;4.35;2.12;;;;;;;26.71;49.04;98453.59;4482714;31;20438;-66
2023/06/30 08:13:18;;;;;;;3.97;2.17;;;;;;;26.94;49.97;98445.50;4483210;31;20115;-66
2023/06/30 08:15:47;;;;;;;2.80;2.12;;;;;;;27.02;50.26;98437.78;4482109;31;20153;-66
2023/06/30 08:18:16;;;;;;;2.78;1.75;;;;;;;26.73;48.03;98429.94;4482686;31;20123;-66
2023/06/30 08:21:00;;;;;;;8.05;2.00;;;;;;;26.99;47.49;98435.59;4483095;32;20092;-66
2023/06/30 08:23:27;;;;;;;3.90;2.12;;;;;;;26.99;46.07;98435.59;4483462;31;20139;-68
2023/06/30 08:25:55;;;;;;;2.20;2.00;;;;;;;27.19;46.45;98432.34;4480788;31;20591;-66
2023/06/30 08:28:22;;;;;;;3.97;2.12;;;;;;;27.50;48.63;98438.00;4483128;31;20084;-66
2023/06/30 08:30:49;;;;;;;2.95;2.47;;;;;;;27.50;45.49;98438.00;4479733;31;20139;-66
2023/06/30 08:33:17;;;;;;;5.45;1.98;;;;;;;27.54;46.29;98446.37;4480542;31;20101;-66
2023/06/30 08:36:05;;;;;;;2.97;2.15;;;;;;;27.71;43.93;98438.19;4479563;31;20169;-66
2023/06/30 08:38:32;;;;;;;3.10;2.22;;;;;;;27.43;43.61;98440.94;4480576;31;20488;-66
2023/06/30 08:41:00;;;;;;;2.70;2.35;;;;;;;27.60;47.04;98431.91;4480094;31;20104;-66
2023/06/30 08:43:29;;;;;;;2.40;2.10;;;;;;;27.81;45.74;98427.47;4475352;31;20112;-66
2023/06/30 08:45:59;;;;;;;4.28;1.95;;;;;;;27.91;47.40;98426.75;4481758;31;20136;-66
2023/06/30 08:48:27;;;;;;;2.25;1.95;;;;;;;27.79;44.41;98433.13;4482334;31;20462;-66
2023/06/30 08:50:55;;;;;;;3.08;1.98;;;;;;;28.09;45.45;98433.63;4481375;31;20108;-66
2023/06/30 08:53:24;;;;;;;4.47;2.25;;;;;;;28.03;44.48;98435.47;4481901;31;20108;-66
2023/06/30 08:55:53;;;;;;;2.40;1.95;;;;;;;28.19;42.71;98430.19;4482705;31;20199;-66
2023/06/30 08:58:20;;;;;;;5.30;2.03;;;;;;;28.17;45.23;98426.94;4482834;31;20509;-66
2023/06/30 09:00:53;;;;;;;6.78;1.83;;;;;;;27.98;45.32;98430.06;4483341;31;20420;-66
2023/06/30 09:03:25;;;;;;;2.65;1.60;;;;;;;27.99;43.78;98422.78;4481878;31;20496;-66
2023/06/30 09:05:55;;;;;;;3.50;1.55;;;;;;;28.03;42.80;98419.31;4479240;31;20104;-66
2023/06/30 09:08:24;;;;;;;4.75;1.73;;;;;;;28.19;42.34;98419.41;4477610;31;20092;-66
2023/06/30 09:10:52;;;;;;;3.83;1.70;;;;;;;28.30;42.10;98413.00;4480006;31;20089;-66
2023/06/30 09:13:20;;;;;;;3.40;1.70;;;;;;;28.26;42.28;98407.31;4478434;32;20104;-66
2023/06/30 09:15:49;;;;;;;2.95;2.10;;;;;;;28.32;42.77;98406.28;4478260;31;20131;-66
2023/06/30 09:18:16;;;;;;;4.50;1.80;;;;;;;28.37;46.09;98413.56;4477481;31;20136;-66
2023/06/30 09:20:44;;;;;;;4.85;1.70;;;;;;;28.62;43.74;98420.19;4476874;31;20155;-66
2023/06/30 09:23:12;;;;;;;3.40;1.80;;;;;;;28.58;40.93;98416.37;4482182;31;20110;-66
2023/06/30 09:25:39;;;;;;;2.72;1.42;;;;;;;28.63;39.18;98414.53;4478924;31;20095;-66
2023/06/30 09:28:12;;;;;;;3.75;1.70;;;;;;;28.56;37.07;98415.81;4480795;31;20104;-66
2023/06/30 09:30:43;;;;;;;3.10;1.65;;;;;;;28.72;42.58;98412.16;4483789;31;20115;-66
2023/06/30 09:33:16;;;;;;;2.80;1.85;;;;;;;28.88;41.95;98401.41;4479422;31;20481;-67
2023/06/30 09:35:47;;;;;;;5.15;1.58;;;;;;;29.10;40.92;98401.97;4485930;31;20571;-66
2023/06/30 09:38:17;;;;;;;4.18;1.65;;;;;;;29.22;38.03;98400.94;4486055;31;20131;-66
2023/06/30 09:40:49;;;;;;;6.90;1.70;;;;;;;29.24;37.34;98404.16;4487495;31;20126;-66
2023/06/30 09:43:21;;;;;;;2.67;2.22;;;;;;;29.02;39.09;98389.84;4489191;31;20603;-66
2023/06/30 09:46:01;;;;;;;3.17;1.92;;;;;;;28.80;41.43;98383.84;4484479;31;20092;-66
2023/06/30 09:48:38;;;;;;;4.93;2.30;;;;;;;29.09;41.37;98386.06;4486357;31;20113;-66
2023/06/30 09:51:07;;;;;;;3.92;1.92;;;;;;;28.79;39.54;98387.63;4486415;31;20168;-66
2023/06/30 09:53:39;;;;;;;2.37;1.87;;;;;;;28.85;41.15;98383.84;4482634;31;20180;-66
2023/06/30 09:56:12;;;;;;;3.30;1.83;;;;;;;28.93;40.61;98387.91;4493514;31;20111;-66
2023/06/30 09:58:39;;;;;;;3.28;1.90;;;;;;;29.33;38.55;98397.19;4497711;31;20100;-66
2023/06/30 10:01:08;;;;;;;5.30;1.62;;;;;;;29.45;39.80;98397.72;4499762;31;20144;-66
2023/06/30 10:03:48;;;;;;;4.62;1.92;;;;;;;29.52;40.67;98384.75;4486918;31;20446;-66
2023/06/30 10:06:21;;;;;;;2.25;1.70;;;;;;;29.63;38.65;98398.22;4468972;31;20088;-66
2023/06/30 10:08:50;;;;;;;;;;;;;;;29.78;38.80;98398.25;4493176;31;20111;-66
2023/06/30 10:11:21;;;;;;;2.22;1.55;;;;;;;29.84;38.69;98391.78;4487799;31;19998;-66
2023/06/30 10:13:54;;;;;;;1.95;1.75;;;;;;;29.75;38.97;98387.94;4479036;31;20091;-66
2023/06/30 10:16:22;;;;;;;3.93;1.50;;;;;;;30.01;38.73;98380.66;4480637;32;20465;-67
2023/06/30 10:18:50;;;;;;;4.53;1.40;;;;;;;29.63;36.83;98387.44;4485599;31;20119;-66
2023/06/30 10:21:17;;;;;;;4.12;1.70;;;;;;;29.59;37.77;98397.19;4487216;31;20092;-66
2023/06/30 10:23:46;;;;;;;4.28;1.77;;;;;;;29.84;38.02;98393.66;4488983;31;20101;-67
2023/06/30 10:26:15;;;;;;;2.12;1.50;;;;;;;29.79;35.36;98388.25;4470054;32;20499;-66
2023/06/30 10:28:42;;;;;;;5.03;2.20;;;;;;;29.90;39.16;98390.69;4466632;32;20457;-67
2023/06/30 10:31:09;;;;;;;2.58;1.73;;;;;;;30.08;36.66;98381.19;4468023;31;20104;-66
2023/06/30 10:33:37;;;;;;;2.25;1.75;;;;;;;29.98;37.58;98385.78;4491911;31;20100;-67
2023/06/30 10:36:08;;;;;;;2.25;1.42;;;;;;;29.89;35.70;98389.06;4489879;31;20080;-66
2023/06/30 10:38:37;;;;;;;1.87;1.37;;;;;;;29.62;35.72;98383.94;4468126;32;20153;-66
2023/06/30 10:41:17;;;;;;;2.08;1.52;;;;;;;29.88;37.89;98390.13;4468695;32;20160;-67
2023/06/30 10:44:03;;;;;;;1.95;1.35;;;;;;;30.22;36.91;98389.50;4497757;31;20100;-66
2023/06/30 10:46:59;;;;;;;5.57;2.55;;;;;;;30.21;35.30;98379.78;4488786;31;20725;-66
2023/06/30 10:49:32;;;;;;;2.55;1.75;;;;;;;30.26;34.69;98374.34;4482110;31;20108;-65
2023/06/30 10:52:02;;;;;;;2.37;1.77;;;;;;;30.62;36.21;98376.94;4484869;31;20099;-66
2023/06/30 10:54:40;;;;;;;2.80;1.95;;;;;;;30.62;34.11;98376.94;4483922;32;20144;-66
2023/06/30 10:57:10;;;;;;;3.15;1.80;;;;;;;30.34;33.38;98377.56;4483798;31;20387;-66
2023/06/30 10:59:42;;;;;;;2.92;1.50;;;;;;;30.43;35.40;98370.53;4483757;31;20153;-66
2023/06/30 11:02:19;;;;;;;2.42;1.70;;;;;;;30.03;34.95;98364.19;4487601;31;20183;-67
2023/06/30 11:04:47;;;;;;;13.43;2.35;;;;;;;30.43;38.30;98365.94;4486962;31;20096;-67
2023/06/30 11:07:27;;;;;;;3.83;1.60;;;;;;;30.78;37.62;98361.44;4495907;31;20196;-67
2023/06/30 11:09:56;;;;;;;3.00;1.62;;;;;;;30.81;35.50;98357.34;4492259;31;20413;-67
2023/06/30 11:12:26;;;;;;;2.97;1.60;;;;;;;30.97;34.64;98361.56;4489671;31;20453;-63
2023/06/30 11:15:00;;;;;;;3.67;1.48;;;;;;;30.73;34.75;98357.94;4483916;31;20100;-65
2023/06/30 11:17:51;;;;;;;4.93;1.62;;;;;;;31.03;35.86;98354.25;4492982;31;20099;-63
2023/06/30 11:20:18;;;;;;;5.10;2.00;;;;;;;31.26;35.74;98355.44;4492502;31;20471;-66
2023/06/30 11:23:01;;;;;;;5.05;1.70;;;;;;;31.03;35.59;98350.75;4481732;31;20104;-66
2023/06/30 11:25:33;;;;;;;2.75;1.42;;;;;;;31.31;34.47;98352.69;4480448;31;20088;-66
2023/06/30 11:28:04;;;;;;;7.78;1.98;;;;;;;31.59;34.11;98342.19;4465664;32;20115;-66
2023/06/30 11:30:38;;;;;;;2.15;1.50;;;;;;;31.70;35.43;98326.63;4466810;32;20952;-65
2023/06/30 11:33:06;;;;;;;6.07;1.73;;;;;;;31.49;34.59;98331.41;4467210;32;20164;-65
2023/06/30 11:35:34;;;;;;;2.80;1.50;;;;;;;31.61;34.74;98328.34;4467766;32;20115;-64
2023/06/30 11:38:02;;;;;;;3.50;1.60;;;;;;;31.78;33.21;98323.31;4478328;31;20156;-66
2023/06/30 11:40:30;;;;;;;2.62;1.65;;;;;;;31.76;32.66;98313.84;4484182;32;20571;-65
2023/06/30 11:42:59;;;;;;;4.93;1.83;;;;;;;31.77;32.16;98320.88;4486005;31;20119;-66